sensor_id;sensor_type;location;lat;lon;timestamp;P1;durP1;ratioP1;P2;durP2;ratioP2
1765;SDS011;880;52.452;8.656;2022-07-22T00:00:52;10.27;;;9.23;;
1765;SDS011;880;52.452;8.656;2022-07-22T00:03:20;11.70;;;10.10;;
1765;SDS011;880;52.452;8.656;2022-07-22T00:05:47;9.13;;;8.33;;
1765;SDS011;880;52.452;8.656;2022-07-22T00:08:14;9.00;;;8.10;;
1765;SDS011;880;52.452;8.656;2022-07-22T00:10:41;8.03;;;7.33;;
1765;SDS011;880;52.452;8.656;2022-07-22T00:13:08;7.90;;;7.20;;
1765;SDS011;880;52.452;8.656;2022-07-22T00:15:35;7.63;;;6.83;;
1765;SDS011;880;52.452;8.656;2022-07-22T00:18:02;7.73;;;6.93;;
1765;SDS011;880;52.452;8.656;2022-07-22T00:20:29;7.37;;;5.50;;
1765;SDS011;880;52.452;8.656;2022-07-22T00:22:56;5.50;;;4.87;;
1765;SDS011;880;52.452;8.656;2022-07-22T00:25:23;6.40;;;5.17;;
1765;SDS011;880;52.452;8.656;2022-07-22T00:27:50;4.10;;;3.70;;
1765;SDS011;880;52.452;8.656;2022-07-22T00:30:17;4.70;;;3.87;;
1765;SDS011;880;52.452;8.656;2022-07-22T00:32:44;4.17;;;3.77;;
1765;SDS011;880;52.452;8.656;2022-07-22T00:35:11;4.80;;;3.30;;
1765;SDS011;880;52.452;8.656;2022-07-22T00:37:38;2.97;;;2.77;;
1765;SDS011;880;52.452;8.656;2022-07-22T00:40:05;3.63;;;3.30;;
1765;SDS011;880;52.452;8.656;2022-07-22T00:42:33;3.60;;;3.30;;
1765;SDS011;880;52.452;8.656;2022-07-22T00:45:01;3.40;;;3.20;;
1765;SDS011;880;52.452;8.656;2022-07-22T00:47:30;3.33;;;3.13;;
1765;SDS011;880;52.452;8.656;2022-07-22T00:49:57;3.87;;;3.57;;
1765;SDS011;880;52.452;8.656;2022-07-22T00:52:24;4.10;;;3.80;;
1765;SDS011;880;52.452;8.656;2022-07-22T00:54:51;4.30;;;3.90;;
1765;SDS011;880;52.452;8.656;2022-07-22T00:57:19;4.30;;;3.80;;
1765;SDS011;880;52.452;8.656;2022-07-22T00:59:46;4.80;;;3.93;;
1765;SDS011;880;52.452;8.656;2022-07-22T01:02:13;4.23;;;3.93;;
1765;SDS011;880;52.452;8.656;2022-07-22T01:04:40;4.50;;;3.87;;
1765;SDS011;880;52.452;8.656;2022-07-22T01:07:07;3.93;;;3.60;;
1765;SDS011;880;52.452;8.656;2022-07-22T01:09:34;3.47;;;3.10;;
1765;SDS011;880;52.452;8.656;2022-07-22T01:12:02;3.60;;;3.30;;
1765;SDS011;880;52.452;8.656;2022-07-22T01:14:30;3.50;;;3.03;;
1765;SDS011;880;52.452;8.656;2022-07-22T01:16:57;14.30;;;3.40;;
1765;SDS011;880;52.452;8.656;2022-07-22T01:19:24;5.10;;;2.83;;
1765;SDS011;880;52.452;8.656;2022-07-22T01:21:51;3.27;;;2.67;;
1765;SDS011;880;52.452;8.656;2022-07-22T01:24:19;5.10;;;3.50;;
1765;SDS011;880;52.452;8.656;2022-07-22T01:26:46;4.90;;;3.17;;
1765;SDS011;880;52.452;8.656;2022-07-22T01:29:13;3.23;;;2.93;;
1765;SDS011;880;52.452;8.656;2022-07-22T01:31:40;4.80;;;4.03;;
1765;SDS011;880;52.452;8.656;2022-07-22T01:34:08;4.10;;;3.77;;
1765;SDS011;880;52.452;8.656;2022-07-22T01:36:35;5.83;;;4.40;;
1765;SDS011;880;52.452;8.656;2022-07-22T01:39:02;4.33;;;3.43;;
1765;SDS011;880;52.452;8.656;2022-07-22T01:41:30;4.30;;;3.90;;
1765;SDS011;880;52.452;8.656;2022-07-22T01:43:57;3.93;;;3.37;;
1765;SDS011;880;52.452;8.656;2022-07-22T01:46:25;4.30;;;3.87;;
1765;SDS011;880;52.452;8.656;2022-07-22T01:48:52;5.67;;;4.23;;
1765;SDS011;880;52.452;8.656;2022-07-22T01:51:21;4.63;;;4.30;;
1765;SDS011;880;52.452;8.656;2022-07-22T01:53:48;5.87;;;5.30;;
1765;SDS011;880;52.452;8.656;2022-07-22T01:56:15;5.30;;;4.80;;
1765;SDS011;880;52.452;8.656;2022-07-22T01:58:47;5.57;;;5.07;;
1765;SDS011;880;52.452;8.656;2022-07-22T02:01:19;5.10;;;4.60;;
1765;SDS011;880;52.452;8.656;2022-07-22T02:03:47;5.37;;;4.80;;
1765;SDS011;880;52.452;8.656;2022-07-22T02:06:15;4.97;;;4.50;;
1765;SDS011;880;52.452;8.656;2022-07-22T02:08:42;6.83;;;5.10;;
1765;SDS011;880;52.452;8.656;2022-07-22T02:11:12;5.20;;;4.70;;
1765;SDS011;880;52.452;8.656;2022-07-22T02:13:50;7.53;;;4.77;;
1765;SDS011;880;52.452;8.656;2022-07-22T02:16:18;5.10;;;4.30;;
1765;SDS011;880;52.452;8.656;2022-07-22T02:18:47;5.90;;;4.80;;
1765;SDS011;880;52.452;8.656;2022-07-22T02:21:15;7.80;;;4.87;;
1765;SDS011;880;52.452;8.656;2022-07-22T02:23:42;5.87;;;5.27;;
1765;SDS011;880;52.452;8.656;2022-07-22T02:26:09;10.17;;;5.03;;
1765;SDS011;880;52.452;8.656;2022-07-22T02:28:37;5.17;;;4.70;;
1765;SDS011;880;52.452;8.656;2022-07-22T02:31:04;5.50;;;5.00;;
1765;SDS011;880;52.452;8.656;2022-07-22T02:33:32;5.80;;;4.10;;
1765;SDS011;880;52.452;8.656;2022-07-22T02:36:00;4.77;;;3.90;;
1765;SDS011;880;52.452;8.656;2022-07-22T02:38:30;4.83;;;4.10;;
1765;SDS011;880;52.452;8.656;2022-07-22T02:40:57;6.97;;;5.20;;
1765;SDS011;880;52.452;8.656;2022-07-22T02:43:24;6.33;;;4.00;;
1765;SDS011;880;52.452;8.656;2022-07-22T02:45:52;6.93;;;4.50;;
1765;SDS011;880;52.452;8.656;2022-07-22T02:48:19;4.90;;;4.10;;
1765;SDS011;880;52.452;8.656;2022-07-22T02:50:47;7.33;;;4.43;;
1765;SDS011;880;52.452;8.656;2022-07-22T02:53:20;5.37;;;3.97;;
1765;SDS011;880;52.452;8.656;2022-07-22T02:55:47;5.23;;;4.73;;
1765;SDS011;880;52.452;8.656;2022-07-22T02:58:15;6.70;;;5.17;;
1765;SDS011;880;52.452;8.656;2022-07-22T03:00:43;5.93;;;4.30;;
1765;SDS011;880;52.452;8.656;2022-07-22T03:03:11;6.50;;;4.00;;
1765;SDS011;880;52.452;8.656;2022-07-22T03:05:38;5.50;;;4.50;;
1765;SDS011;880;52.452;8.656;2022-07-22T03:08:26;5.90;;;3.67;;
1765;SDS011;880;52.452;8.656;2022-07-22T03:10:53;3.97;;;3.50;;
1765;SDS011;880;52.452;8.656;2022-07-22T03:13:21;5.23;;;3.67;;
1765;SDS011;880;52.452;8.656;2022-07-22T03:15:48;6.77;;;3.37;;
1765;SDS011;880;52.452;8.656;2022-07-22T03:18:16;5.70;;;3.37;;
1765;SDS011;880;52.452;8.656;2022-07-22T03:20:43;4.90;;;3.33;;
1765;SDS011;880;52.452;8.656;2022-07-22T03:23:10;4.43;;;3.10;;
1765;SDS011;880;52.452;8.656;2022-07-22T03:25:37;4.20;;;3.10;;
1765;SDS011;880;52.452;8.656;2022-07-22T03:28:05;3.70;;;2.97;;
1765;SDS011;880;52.452;8.656;2022-07-22T03:30:34;3.87;;;3.50;;
1765;SDS011;880;52.452;8.656;2022-07-22T03:33:02;4.37;;;3.93;;
1765;SDS011;880;52.452;8.656;2022-07-22T03:35:32;5.00;;;3.47;;
1765;SDS011;880;52.452;8.656;2022-07-22T03:37:59;6.67;;;3.30;;
1765;SDS011;880;52.452;8.656;2022-07-22T03:40:27;5.10;;;3.80;;
1765;SDS011;880;52.452;8.656;2022-07-22T03:42:56;4.70;;;3.73;;
1765;SDS011;880;52.452;8.656;2022-07-22T03:45:23;7.00;;;4.03;;
1765;SDS011;880;52.452;8.656;2022-07-22T03:47:51;8.53;;;3.70;;
1765;SDS011;880;52.452;8.656;2022-07-22T03:50:22;6.27;;;3.50;;
1765;SDS011;880;52.452;8.656;2022-07-22T03:52:49;5.20;;;3.83;;
1765;SDS011;880;52.452;8.656;2022-07-22T03:55:16;4.23;;;3.87;;
1765;SDS011;880;52.452;8.656;2022-07-22T03:57:47;4.27;;;3.87;;
1765;SDS011;880;52.452;8.656;2022-07-22T04:00:21;8.13;;;4.33;;
1765;SDS011;880;52.452;8.656;2022-07-22T04:02:48;7.47;;;4.63;;
1765;SDS011;880;52.452;8.656;2022-07-22T04:05:22;6.50;;;4.13;;
1765;SDS011;880;52.452;8.656;2022-07-22T04:07:49;6.93;;;4.23;;
1765;SDS011;880;52.452;8.656;2022-07-22T04:10:17;4.27;;;3.97;;
1765;SDS011;880;52.452;8.656;2022-07-22T04:12:44;6.70;;;3.90;;
1765;SDS011;880;52.452;8.656;2022-07-22T04:15:21;6.40;;;3.50;;
1765;SDS011;880;52.452;8.656;2022-07-22T04:17:51;9.43;;;3.73;;
1765;SDS011;880;52.452;8.656;2022-07-22T04:20:18;7.57;;;3.50;;
1765;SDS011;880;52.452;8.656;2022-07-22T04:23:05;4.70;;;3.60;;
1765;SDS011;880;52.452;8.656;2022-07-22T04:25:34;6.53;;;3.77;;
1765;SDS011;880;52.452;8.656;2022-07-22T04:28:02;6.50;;;3.27;;
1765;SDS011;880;52.452;8.656;2022-07-22T04:30:30;2.93;;;2.70;;
1765;SDS011;880;52.452;8.656;2022-07-22T04:32:58;5.10;;;3.67;;
1765;SDS011;880;52.452;8.656;2022-07-22T04:35:26;5.03;;;2.63;;
1765;SDS011;880;52.452;8.656;2022-07-22T04:38:16;3.97;;;2.97;;
1765;SDS011;880;52.452;8.656;2022-07-22T04:40:54;7.23;;;4.50;;
1765;SDS011;880;52.452;8.656;2022-07-22T04:43:23;6.30;;;3.53;;
1765;SDS011;880;52.452;8.656;2022-07-22T04:45:50;6.63;;;4.10;;
1765;SDS011;880;52.452;8.656;2022-07-22T04:48:17;6.20;;;3.63;;
1765;SDS011;880;52.452;8.656;2022-07-22T04:50:46;6.37;;;3.30;;
1765;SDS011;880;52.452;8.656;2022-07-22T04:53:13;5.93;;;4.00;;
1765;SDS011;880;52.452;8.656;2022-07-22T04:55:40;6.77;;;4.13;;
1765;SDS011;880;52.452;8.656;2022-07-22T04:58:08;5.30;;;3.63;;
1765;SDS011;880;52.452;8.656;2022-07-22T05:00:43;4.77;;;4.13;;
1765;SDS011;880;52.452;8.656;2022-07-22T05:03:10;4.23;;;3.83;;
1765;SDS011;880;52.452;8.656;2022-07-22T05:05:39;8.50;;;5.03;;
1765;SDS011;880;52.452;8.656;2022-07-22T05:08:06;5.30;;;3.90;;
1765;SDS011;880;52.452;8.656;2022-07-22T05:10:33;6.50;;;5.10;;
1765;SDS011;880;52.452;8.656;2022-07-22T05:13:00;8.77;;;5.40;;
1765;SDS011;880;52.452;8.656;2022-07-22T05:15:28;5.23;;;4.10;;
1765;SDS011;880;52.452;8.656;2022-07-22T05:17:54;6.30;;;4.37;;
1765;SDS011;880;52.452;8.656;2022-07-22T05:20:25;5.20;;;4.70;;
1765;SDS011;880;52.452;8.656;2022-07-22T05:22:52;6.97;;;5.10;;
1765;SDS011;880;52.452;8.656;2022-07-22T05:25:23;6.93;;;4.70;;
1765;SDS011;880;52.452;8.656;2022-07-22T05:27:51;10.83;;;5.17;;
1765;SDS011;880;52.452;8.656;2022-07-22T05:30:27;6.70;;;3.87;;
1765;SDS011;880;52.452;8.656;2022-07-22T05:32:54;10.33;;;4.27;;
1765;SDS011;880;52.452;8.656;2022-07-22T05:35:41;9.23;;;4.17;;
1765;SDS011;880;52.452;8.656;2022-07-22T05:38:09;5.80;;;4.40;;
1765;SDS011;880;52.452;8.656;2022-07-22T05:40:37;7.13;;;4.30;;
1765;SDS011;880;52.452;8.656;2022-07-22T05:43:04;6.60;;;3.90;;
1765;SDS011;880;52.452;8.656;2022-07-22T05:45:31;9.27;;;4.77;;
1765;SDS011;880;52.452;8.656;2022-07-22T05:47:58;16.57;;;4.40;;
1765;SDS011;880;52.452;8.656;2022-07-22T05:50:25;10.10;;;4.80;;
1765;SDS011;880;52.452;8.656;2022-07-22T05:52:54;9.60;;;4.10;;
1765;SDS011;880;52.452;8.656;2022-07-22T05:55:21;8.87;;;3.80;;
1765;SDS011;880;52.452;8.656;2022-07-22T05:57:48;7.57;;;3.67;;
1765;SDS011;880;52.452;8.656;2022-07-22T06:00:15;7.73;;;4.43;;
1765;SDS011;880;52.452;8.656;2022-07-22T06:02:43;8.33;;;3.90;;
1765;SDS011;880;52.452;8.656;2022-07-22T06:05:16;9.67;;;4.53;;
1765;SDS011;880;52.452;8.656;2022-07-22T06:08:07;4.80;;;4.20;;
1765;SDS011;880;52.452;8.656;2022-07-22T06:10:40;5.53;;;2.93;;
1765;SDS011;880;52.452;8.656;2022-07-22T06:13:07;6.70;;;3.93;;
1765;SDS011;880;52.452;8.656;2022-07-22T06:15:36;7.30;;;3.70;;
1765;SDS011;880;52.452;8.656;2022-07-22T06:18:03;8.80;;;4.30;;
1765;SDS011;880;52.452;8.656;2022-07-22T06:20:30;6.00;;;4.60;;
1765;SDS011;880;52.452;8.656;2022-07-22T06:22:57;9.80;;;4.30;;
1765;SDS011;880;52.452;8.656;2022-07-22T06:25:24;9.43;;;4.00;;
1765;SDS011;880;52.452;8.656;2022-07-22T06:28:18;10.60;;;4.87;;
1765;SDS011;880;52.452;8.656;2022-07-22T06:30:46;8.37;;;4.77;;
1765;SDS011;880;52.452;8.656;2022-07-22T06:33:14;10.33;;;4.87;;
1765;SDS011;880;52.452;8.656;2022-07-22T06:35:41;13.53;;;4.77;;
1765;SDS011;880;52.452;8.656;2022-07-22T06:38:09;7.83;;;4.83;;
1765;SDS011;880;52.452;8.656;2022-07-22T06:41:11;8.90;;;5.27;;
1765;SDS011;880;52.452;8.656;2022-07-22T06:43:46;11.13;;;8.00;;
1765;SDS011;880;52.452;8.656;2022-07-22T06:46:34;11.27;;;5.97;;
1765;SDS011;880;52.452;8.656;2022-07-22T06:49:03;9.00;;;5.10;;
1765;SDS011;880;52.452;8.656;2022-07-22T06:51:33;10.80;;;5.53;;
1765;SDS011;880;52.452;8.656;2022-07-22T06:54:00;10.43;;;4.93;;
1765;SDS011;880;52.452;8.656;2022-07-22T06:56:28;6.60;;;5.10;;
1765;SDS011;880;52.452;8.656;2022-07-22T06:58:55;7.70;;;4.90;;
1765;SDS011;880;52.452;8.656;2022-07-22T07:01:23;7.20;;;5.60;;
1765;SDS011;880;52.452;8.656;2022-07-22T07:03:57;8.77;;;4.93;;
1765;SDS011;880;52.452;8.656;2022-07-22T07:06:25;7.43;;;4.93;;
1765;SDS011;880;52.452;8.656;2022-07-22T07:09:21;8.20;;;4.70;;
1765;SDS011;880;52.452;8.656;2022-07-22T07:12:00;6.90;;;4.47;;
1765;SDS011;880;52.452;8.656;2022-07-22T07:14:56;7.97;;;4.07;;
1765;SDS011;880;52.452;8.656;2022-07-22T07:17:44;6.97;;;4.70;;
1765;SDS011;880;52.452;8.656;2022-07-22T07:20:14;8.57;;;5.27;;
1765;SDS011;880;52.452;8.656;2022-07-22T07:22:41;8.03;;;5.50;;
1765;SDS011;880;52.452;8.656;2022-07-22T07:25:08;6.20;;;4.87;;
1765;SDS011;880;52.452;8.656;2022-07-22T07:27:47;11.40;;;4.90;;
1765;SDS011;880;52.452;8.656;2022-07-22T07:30:17;8.47;;;4.40;;
1765;SDS011;880;52.452;8.656;2022-07-22T07:32:44;7.13;;;5.07;;
1765;SDS011;880;52.452;8.656;2022-07-22T07:35:11;7.83;;;4.83;;
1765;SDS011;880;52.452;8.656;2022-07-22T07:37:38;9.03;;;4.27;;
1765;SDS011;880;52.452;8.656;2022-07-22T07:40:05;15.40;;;5.30;;
1765;SDS011;880;52.452;8.656;2022-07-22T07:42:34;9.10;;;4.13;;
1765;SDS011;880;52.452;8.656;2022-07-22T07:45:11;9.13;;;4.30;;
1765;SDS011;880;52.452;8.656;2022-07-22T07:47:38;9.50;;;5.00;;
1765;SDS011;880;52.452;8.656;2022-07-22T07:50:06;7.30;;;4.10;;
1765;SDS011;880;52.452;8.656;2022-07-22T07:52:38;7.00;;;4.17;;
1765;SDS011;880;52.452;8.656;2022-07-22T07:55:10;4.77;;;4.20;;
1765;SDS011;880;52.452;8.656;2022-07-22T07:57:39;5.47;;;3.97;;
1765;SDS011;880;52.452;8.656;2022-07-22T08:00:11;6.30;;;3.83;;
1765;SDS011;880;52.452;8.656;2022-07-22T08:02:45;8.83;;;3.70;;
1765;SDS011;880;52.452;8.656;2022-07-22T08:05:12;9.50;;;3.60;;
1765;SDS011;880;52.452;8.656;2022-07-22T08:07:41;4.97;;;3.50;;
1765;SDS011;880;52.452;8.656;2022-07-22T08:10:09;7.00;;;4.33;;
1765;SDS011;880;52.452;8.656;2022-07-22T08:13:15;4.23;;;3.57;;
1765;SDS011;880;52.452;8.656;2022-07-22T08:16:13;4.33;;;3.73;;
1765;SDS011;880;52.452;8.656;2022-07-22T08:18:40;3.40;;;2.90;;
1765;SDS011;880;52.452;8.656;2022-07-22T08:21:08;8.90;;;4.13;;
1765;SDS011;880;52.452;8.656;2022-07-22T08:23:43;5.90;;;3.90;;
1765;SDS011;880;52.452;8.656;2022-07-22T08:26:11;4.37;;;3.17;;
1765;SDS011;880;52.452;8.656;2022-07-22T08:28:38;5.23;;;3.77;;
1765;SDS011;880;52.452;8.656;2022-07-22T08:31:05;9.83;;;3.90;;
1765;SDS011;880;52.452;8.656;2022-07-22T08:33:32;4.70;;;3.90;;
1765;SDS011;880;52.452;8.656;2022-07-22T08:36:01;5.97;;;3.70;;
1765;SDS011;880;52.452;8.656;2022-07-22T08:38:30;6.20;;;3.90;;
1765;SDS011;880;52.452;8.656;2022-07-22T08:40:58;6.50;;;3.20;;
1765;SDS011;880;52.452;8.656;2022-07-22T08:43:31;4.10;;;3.60;;
1765;SDS011;880;52.452;8.656;2022-07-22T08:46:03;6.43;;;3.57;;
1765;SDS011;880;52.452;8.656;2022-07-22T08:48:44;6.77;;;3.10;;
1765;SDS011;880;52.452;8.656;2022-07-22T08:51:42;4.20;;;3.30;;
1765;SDS011;880;52.452;8.656;2022-07-22T08:54:19;9.57;;;3.63;;
1765;SDS011;880;52.452;8.656;2022-07-22T08:56:47;4.20;;;2.70;;
1765;SDS011;880;52.452;8.656;2022-07-22T08:59:15;3.83;;;2.90;;
1765;SDS011;880;52.452;8.656;2022-07-22T09:02:02;5.50;;;3.00;;
1765;SDS011;880;52.452;8.656;2022-07-22T09:04:49;6.07;;;2.87;;
1765;SDS011;880;52.452;8.656;2022-07-22T09:07:45;5.43;;;2.93;;
1765;SDS011;880;52.452;8.656;2022-07-22T09:10:21;4.23;;;2.70;;
1765;SDS011;880;52.452;8.656;2022-07-22T09:13:02;5.10;;;2.67;;
1765;SDS011;880;52.452;8.656;2022-07-22T09:15:51;3.20;;;2.90;;
1765;SDS011;880;52.452;8.656;2022-07-22T09:18:59;4.80;;;3.60;;
1765;SDS011;880;52.452;8.656;2022-07-22T09:21:35;5.13;;;3.03;;
1765;SDS011;880;52.452;8.656;2022-07-22T09:24:07;7.07;;;3.80;;
1765;SDS011;880;52.452;8.656;2022-07-22T09:26:37;3.93;;;2.70;;
1765;SDS011;880;52.452;8.656;2022-07-22T09:29:42;5.40;;;3.10;;
1765;SDS011;880;52.452;8.656;2022-07-22T09:32:17;3.53;;;3.23;;
1765;SDS011;880;52.452;8.656;2022-07-22T09:35:03;3.83;;;3.00;;
1765;SDS011;880;52.452;8.656;2022-07-22T09:37:58;5.87;;;3.50;;
1765;SDS011;880;52.452;8.656;2022-07-22T09:40:28;4.77;;;3.10;;
1765;SDS011;880;52.452;8.656;2022-07-22T09:43:05;3.90;;;3.30;;
1765;SDS011;880;52.452;8.656;2022-07-22T09:45:55;5.60;;;3.47;;
1765;SDS011;880;52.452;8.656;2022-07-22T09:48:42;5.20;;;2.87;;
1765;SDS011;880;52.452;8.656;2022-07-22T09:51:16;4.00;;;3.10;;
1765;SDS011;880;52.452;8.656;2022-07-22T09:54:03;4.10;;;3.30;;
1765;SDS011;880;52.452;8.656;2022-07-22T09:56:34;4.60;;;3.30;;
1765;SDS011;880;52.452;8.656;2022-07-22T09:59:02;4.37;;;2.87;;
1765;SDS011;880;52.452;8.656;2022-07-22T10:01:35;5.70;;;3.60;;
1765;SDS011;880;52.452;8.656;2022-07-22T10:04:03;5.80;;;3.10;;
1765;SDS011;880;52.452;8.656;2022-07-22T10:06:34;3.70;;;3.50;;
1765;SDS011;880;52.452;8.656;2022-07-22T10:09:09;7.07;;;4.00;;
1765;SDS011;880;52.452;8.656;2022-07-22T10:11:41;3.93;;;3.10;;
1765;SDS011;880;52.452;8.656;2022-07-22T10:14:17;4.60;;;3.73;;
1765;SDS011;880;52.452;8.656;2022-07-22T10:16:49;2.87;;;2.67;;
1765;SDS011;880;52.452;8.656;2022-07-22T10:19:16;5.37;;;3.47;;
1765;SDS011;880;52.452;8.656;2022-07-22T10:21:43;3.77;;;2.90;;
1765;SDS011;880;52.452;8.656;2022-07-22T10:26:55;2.97;;;2.73;;
1765;SDS011;880;52.452;8.656;2022-07-22T10:29:39;5.60;;;3.60;;
1765;SDS011;880;52.452;8.656;2022-07-22T10:34:42;5.37;;;3.40;;
1765;SDS011;880;52.452;8.656;2022-07-22T10:40:11;3.80;;;3.17;;
1765;SDS011;880;52.452;8.656;2022-07-22T10:46:08;3.60;;;2.90;;
1765;SDS011;880;52.452;8.656;2022-07-22T10:48:25;3.30;;;2.67;;
1765;SDS011;880;52.452;8.656;2022-07-22T10:51:13;4.20;;;3.37;;
1765;SDS011;880;52.452;8.656;2022-07-22T10:53:57;4.03;;;3.27;;
1765;SDS011;880;52.452;8.656;2022-07-22T10:56:35;4.00;;;3.27;;
1765;SDS011;880;52.452;8.656;2022-07-22T10:59:14;4.67;;;3.20;;
1765;SDS011;880;52.452;8.656;2022-07-22T11:01:44;6.83;;;3.23;;
1765;SDS011;880;52.452;8.656;2022-07-22T11:06:52;6.57;;;3.87;;
1765;SDS011;880;52.452;8.656;2022-07-22T11:09:22;3.73;;;3.00;;
1765;SDS011;880;52.452;8.656;2022-07-22T11:11:57;4.33;;;3.17;;
1765;SDS011;880;52.452;8.656;2022-07-22T11:14:29;7.57;;;3.80;;
1765;SDS011;880;52.452;8.656;2022-07-22T11:16:59;5.20;;;3.80;;
1765;SDS011;880;52.452;8.656;2022-07-22T11:19:35;4.03;;;3.13;;
1765;SDS011;880;52.452;8.656;2022-07-22T11:22:04;3.70;;;3.40;;
1765;SDS011;880;52.452;8.656;2022-07-22T11:24:40;7.07;;;3.10;;
1765;SDS011;880;52.452;8.656;2022-07-22T11:27:14;7.40;;;4.20;;
1765;SDS011;880;52.452;8.656;2022-07-22T11:29:43;4.83;;;3.20;;
1765;SDS011;880;52.452;8.656;2022-07-22T11:32:16;5.63;;;4.20;;
1765;SDS011;880;52.452;8.656;2022-07-22T11:34:51;10.00;;;3.60;;
1765;SDS011;880;52.452;8.656;2022-07-22T11:37:19;7.17;;;3.97;;
1765;SDS011;880;52.452;8.656;2022-07-22T11:39:51;4.33;;;3.70;;
1765;SDS011;880;52.452;8.656;2022-07-22T11:42:25;4.67;;;4.20;;
1765;SDS011;880;52.452;8.656;2022-07-22T11:44:53;6.90;;;4.40;;
1765;SDS011;880;52.452;8.656;2022-07-22T11:47:20;5.63;;;3.87;;
1765;SDS011;880;52.452;8.656;2022-07-22T11:49:47;7.13;;;3.93;;
1765;SDS011;880;52.452;8.656;2022-07-22T11:52:14;5.93;;;4.07;;
1765;SDS011;880;52.452;8.656;2022-07-22T11:54:41;6.97;;;4.20;;
1765;SDS011;880;52.452;8.656;2022-07-22T11:57:11;4.40;;;3.70;;
1765;SDS011;880;52.452;8.656;2022-07-22T11:59:40;7.60;;;4.30;;
1765;SDS011;880;52.452;8.656;2022-07-22T12:02:07;4.90;;;3.33;;
1765;SDS011;880;52.452;8.656;2022-07-22T12:04:36;6.10;;;4.57;;
1765;SDS011;880;52.452;8.656;2022-07-22T12:07:04;7.10;;;4.60;;
1765;SDS011;880;52.452;8.656;2022-07-22T12:09:33;7.83;;;3.90;;
1765;SDS011;880;52.452;8.656;2022-07-22T12:12:03;6.10;;;4.90;;
1765;SDS011;880;52.452;8.656;2022-07-22T12:14:31;4.77;;;4.37;;
1765;SDS011;880;52.452;8.656;2022-07-22T12:19:33;8.13;;;4.60;;
1765;SDS011;880;52.452;8.656;2022-07-22T12:22:03;6.17;;;4.30;;
1765;SDS011;880;52.452;8.656;2022-07-22T12:24:57;6.50;;;4.93;;
1765;SDS011;880;52.452;8.656;2022-07-22T12:27:30;5.30;;;4.80;;
1765;SDS011;880;52.452;8.656;2022-07-22T12:29:57;6.57;;;5.20;;
1765;SDS011;880;52.452;8.656;2022-07-22T12:32:28;7.27;;;4.90;;
1765;SDS011;880;52.452;8.656;2022-07-22T12:35:02;6.57;;;5.27;;
1765;SDS011;880;52.452;8.656;2022-07-22T12:37:42;5.37;;;4.50;;
1765;SDS011;880;52.452;8.656;2022-07-22T12:40:16;6.50;;;4.07;;
1765;SDS011;880;52.452;8.656;2022-07-22T12:43:07;6.60;;;4.60;;
1765;SDS011;880;52.452;8.656;2022-07-22T12:45:36;5.13;;;4.60;;
1765;SDS011;880;52.452;8.656;2022-07-22T12:48:05;4.43;;;4.03;;
1765;SDS011;880;52.452;8.656;2022-07-22T12:50:41;9.40;;;4.70;;
1765;SDS011;880;52.452;8.656;2022-07-22T12:53:23;5.70;;;4.47;;
1765;SDS011;880;52.452;8.656;2022-07-22T12:55:56;4.30;;;3.80;;
1765;SDS011;880;52.452;8.656;2022-07-22T12:58:26;4.30;;;3.90;;
1765;SDS011;880;52.452;8.656;2022-07-22T13:00:57;5.43;;;4.50;;
1765;SDS011;880;52.452;8.656;2022-07-22T13:03:27;4.43;;;3.43;;
1765;SDS011;880;52.452;8.656;2022-07-22T13:05:57;6.37;;;4.33;;
1765;SDS011;880;52.452;8.656;2022-07-22T13:08:27;7.90;;;4.50;;
1765;SDS011;880;52.452;8.656;2022-07-22T13:11:10;5.00;;;4.30;;
1765;SDS011;880;52.452;8.656;2022-07-22T13:13:37;4.57;;;4.17;;
1765;SDS011;880;52.452;8.656;2022-07-22T13:16:04;5.93;;;4.50;;
1765;SDS011;880;52.452;8.656;2022-07-22T13:18:31;7.73;;;4.70;;
1765;SDS011;880;52.452;8.656;2022-07-22T13:20:58;5.20;;;4.07;;
1765;SDS011;880;52.452;8.656;2022-07-22T13:23:25;5.17;;;4.30;;
1765;SDS011;880;52.452;8.656;2022-07-22T13:25:53;6.07;;;4.20;;
1765;SDS011;880;52.452;8.656;2022-07-22T13:28:21;6.07;;;4.20;;
1765;SDS011;880;52.452;8.656;2022-07-22T13:30:49;4.83;;;4.40;;
1765;SDS011;880;52.452;8.656;2022-07-22T13:33:16;8.73;;;4.70;;
1765;SDS011;880;52.452;8.656;2022-07-22T13:35:43;4.03;;;3.37;;
1765;SDS011;880;52.452;8.656;2022-07-22T13:38:10;4.13;;;3.73;;
1765;SDS011;880;52.452;8.656;2022-07-22T13:40:44;6.13;;;4.00;;
1765;SDS011;880;52.452;8.656;2022-07-22T13:43:22;5.70;;;3.80;;
1765;SDS011;880;52.452;8.656;2022-07-22T13:45:52;3.60;;;3.27;;
1765;SDS011;880;52.452;8.656;2022-07-22T13:48:22;4.70;;;3.23;;
1765;SDS011;880;52.452;8.656;2022-07-22T13:50:49;4.77;;;3.33;;
1765;SDS011;880;52.452;8.656;2022-07-22T13:53:16;5.30;;;3.63;;
1765;SDS011;880;52.452;8.656;2022-07-22T13:55:43;3.97;;;3.63;;
1765;SDS011;880;52.452;8.656;2022-07-22T13:58:10;4.87;;;3.70;;
1765;SDS011;880;52.452;8.656;2022-07-22T14:00:37;7.57;;;3.80;;
1765;SDS011;880;52.452;8.656;2022-07-22T14:03:06;6.87;;;4.33;;
1765;SDS011;880;52.452;8.656;2022-07-22T14:05:33;5.80;;;3.47;;
1765;SDS011;880;52.452;8.656;2022-07-22T14:08:00;5.17;;;4.10;;
1765;SDS011;880;52.452;8.656;2022-07-22T14:10:27;5.50;;;3.63;;
1765;SDS011;880;52.452;8.656;2022-07-22T14:12:55;5.47;;;4.40;;
1765;SDS011;880;52.452;8.656;2022-07-22T14:15:21;4.90;;;4.30;;
1765;SDS011;880;52.452;8.656;2022-07-22T14:17:49;4.17;;;3.87;;
1765;SDS011;880;52.452;8.656;2022-07-22T14:20:16;8.00;;;4.53;;
1765;SDS011;880;52.452;8.656;2022-07-22T14:22:43;4.30;;;3.90;;
1765;SDS011;880;52.452;8.656;2022-07-22T14:25:10;8.63;;;3.73;;
1765;SDS011;880;52.452;8.656;2022-07-22T14:27:37;5.20;;;4.47;;
1765;SDS011;880;52.452;8.656;2022-07-22T14:30:04;5.40;;;3.67;;
1765;SDS011;880;52.452;8.656;2022-07-22T14:32:32;9.47;;;4.37;;
1765;SDS011;880;52.452;8.656;2022-07-22T14:34:59;6.83;;;4.20;;
1765;SDS011;880;52.452;8.656;2022-07-22T14:37:28;4.63;;;4.17;;
1765;SDS011;880;52.452;8.656;2022-07-22T14:39:55;5.80;;;4.37;;
1765;SDS011;880;52.452;8.656;2022-07-22T14:42:22;4.50;;;3.83;;
1765;SDS011;880;52.452;8.656;2022-07-22T14:44:49;13.93;;;6.77;;
1765;SDS011;880;52.452;8.656;2022-07-22T14:47:16;6.27;;;4.60;;
1765;SDS011;880;52.452;8.656;2022-07-22T14:49:43;5.00;;;4.07;;
1765;SDS011;880;52.452;8.656;2022-07-22T14:52:10;6.70;;;4.97;;
1765;SDS011;880;52.452;8.656;2022-07-22T14:54:37;16.83;;;9.43;;
1765;SDS011;880;52.452;8.656;2022-07-22T14:57:04;22.93;;;9.70;;
1765;SDS011;880;52.452;8.656;2022-07-22T14:59:31;9.83;;;6.30;;
1765;SDS011;880;52.452;8.656;2022-07-22T15:01:58;10.50;;;6.00;;
1765;SDS011;880;52.452;8.656;2022-07-22T15:04:25;5.40;;;4.90;;
1765;SDS011;880;52.452;8.656;2022-07-22T15:06:52;6.37;;;5.20;;
1765;SDS011;880;52.452;8.656;2022-07-22T15:09:19;6.43;;;5.27;;
1765;SDS011;880;52.452;8.656;2022-07-22T15:11:46;10.90;;;5.77;;
1765;SDS011;880;52.452;8.656;2022-07-22T15:14:13;5.67;;;4.93;;
1765;SDS011;880;52.452;8.656;2022-07-22T15:16:40;6.50;;;4.97;;
1765;SDS011;880;52.452;8.656;2022-07-22T15:19:07;10.30;;;5.10;;
1765;SDS011;880;52.452;8.656;2022-07-22T15:21:35;5.37;;;4.87;;
1765;SDS011;880;52.452;8.656;2022-07-22T15:24:02;7.70;;;4.70;;
1765;SDS011;880;52.452;8.656;2022-07-22T15:26:30;7.40;;;4.30;;
1765;SDS011;880;52.452;8.656;2022-07-22T15:28:57;7.50;;;3.80;;
1765;SDS011;880;52.452;8.656;2022-07-22T15:31:25;7.10;;;4.20;;
1765;SDS011;880;52.452;8.656;2022-07-22T15:33:56;5.40;;;4.63;;
1765;SDS011;880;52.452;8.656;2022-07-22T15:36:23;5.53;;;4.93;;
1765;SDS011;880;52.452;8.656;2022-07-22T15:38:52;5.40;;;4.90;;
1765;SDS011;880;52.452;8.656;2022-07-22T15:41:25;4.30;;;3.90;;
1765;SDS011;880;52.452;8.656;2022-07-22T15:43:54;5.97;;;3.90;;
1765;SDS011;880;52.452;8.656;2022-07-22T15:46:21;6.43;;;5.13;;
1765;SDS011;880;52.452;8.656;2022-07-22T15:48:48;5.80;;;4.83;;
1765;SDS011;880;52.452;8.656;2022-07-22T15:51:16;7.23;;;4.60;;
1765;SDS011;880;52.452;8.656;2022-07-22T15:53:43;4.27;;;3.83;;
1765;SDS011;880;52.452;8.656;2022-07-22T15:56:10;3.77;;;3.47;;
1765;SDS011;880;52.452;8.656;2022-07-22T15:58:37;7.00;;;4.57;;
1765;SDS011;880;52.452;8.656;2022-07-22T16:01:43;4.73;;;3.53;;
1765;SDS011;880;52.452;8.656;2022-07-22T16:04:10;4.80;;;4.30;;
1765;SDS011;880;52.452;8.656;2022-07-22T16:06:37;4.30;;;4.00;;
1765;SDS011;880;52.452;8.656;2022-07-22T16:09:04;6.13;;;5.60;;